Time;durP1;ratioP1;P1;durP2;ratioP2;P2;SDS_P1;SDS_P2;PMS_P1;PMS_P2;Temp;Humidity;BMP_temperature;BMP_pressure;BME280_temperature;BME280_humidity;BME280_pressure;Samples;Min_cycle;Max_cycle;Signal;HPM_P1;HPM_P2
2022/06/05 00:02:05;;;;;;;21.33;14.95;;;;;;;;;;6276554;22;20335;-83
2022/06/05 00:04:37;;;;;;;27.42;13.57;;;;;;;;;;6249102;22;20071;-83
2022/06/05 00:07:27;;;;;;;26.50;13.77;;;;;;;;;;6277396;22;20007;-83
2022/06/05 00:10:21;;;;;;;19.65;14.02;;;;;;;;;;6255102;22;19996;-83
2022/06/05 00:13:17;;;;;;;21.80;13.80;;;;;;;;;;6224276;22;20061;-83
2022/06/05 00:15:43;;;;;;;18.77;13.73;;;;;;;;;;6229183;22;19999;-82
2022/06/05 00:18:09;;;;;;;22.10;14.65;;;;;;;;;;6253235;22;20461;-83
2022/06/05 00:20:35;;;;;;;21.00;15.02;;;;;;;;;;6275876;22;20454;-83
2022/06/05 00:23:00;;;;;;;20.33;13.50;;;;;;;;;;6249627;22;20061;-83
2022/06/05 00:26:00;;;;;;;20.55;14.30;;;;;;;;;;6276553;22;20007;-82
2022/06/05 00:28:39;;;;;;;17.95;14.30;;;;;;;;;;6249225;22;20008;-82
2022/06/05 00:31:30;;;;;;;19.15;14.32;;;;;;;;;;6249697;22;20354;-83
2022/06/05 00:33:57;;;;;;;22.70;14.43;;;;;;;;;;6223843;22;20373;-83
2022/06/05 00:36:47;;;;;;;18.60;14.18;;;;;;;;;;6275902;22;20008;-83
2022/06/05 00:39:19;;;;;;;18.50;14.25;;;;;;;;;;6282101;22;20003;-82
2022/06/05 00:42:00;;;;;;;23.42;14.98;;;;;;;;;;6224680;22;20003;-83
2022/06/05 00:44:37;;;;;;;19.13;14.23;;;;;;;;;;6248517;22;20004;-83
2022/06/05 00:47:03;;;;;;;24.35;15.07;;;;;;;;;;6249015;22;20129;-83
2022/06/05 00:49:52;;;;;;;21.65;14.43;;;;;;;;;;6275938;22;19995;-83
2022/06/05 00:52:18;;;;;;;20.75;15.35;;;;;;;;;;6225345;22;20000;-83
2022/06/05 00:54:43;;;;;;;22.42;15.13;;;;;;;;;;6275544;22;20335;-83
2022/06/05 00:57:10;;;;;;;22.42;14.82;;;;;;;;;;6275208;22;20003;-82
2022/06/05 00:59:36;;;;;;;23.63;14.52;;;;;;;;;;6223549;22;20082;-83
2022/06/05 01:02:02;;;;;;;21.45;15.25;;;;;;;;;;6281203;22;20003;-82
2022/06/05 01:04:27;;;;;;;24.33;14.77;;;;;;;;;;6276672;22;20462;-83
2022/06/05 01:06:53;;;;;;;20.33;14.75;;;;;;;;;;6223237;22;20011;-83
2022/06/05 01:09:19;;;;;;;20.52;14.90;;;;;;;;;;6275612;22;20000;-83
2022/06/05 01:11:50;;;;;;;21.67;15.57;;;;;;;;;;6223050;22;20447;-82
2022/06/05 01:14:30;;;;;;;22.15;15.43;;;;;;;;;;6275480;22;20003;-83
2022/06/05 01:17:06;;;;;;;25.33;16.45;;;;;;;;;;6259753;22;20076;-82
2022/06/05 01:19:43;;;;;;;21.92;16.35;;;;;;;;;;6249712;22;20011;-83
2022/06/05 01:22:39;;;;;;;26.48;16.27;;;;;;;;;;6273866;22;20065;-82
2022/06/05 01:25:30;;;;;;;21.20;16.35;;;;;;;;;;6264785;22;20011;-83
2022/06/05 01:27:57;;;;;;;27.30;16.40;;;;;;;;;;6274042;22;20444;-83
2022/06/05 01:30:23;;;;;;;24.95;16.20;;;;;;;;;;6248284;22;20004;-82
2022/06/05 01:32:55;;;;;;;27.58;15.98;;;;;;;;;;6274749;22;20007;-83
2022/06/05 01:35:38;;;;;;;27.00;16.27;;;;;;;;;;6274094;22;20012;-83
2022/06/05 01:38:08;;;;;;;25.02;15.40;;;;;;;;;;6273668;22;20474;-82
2022/06/05 01:40:45;;;;;;;31.83;16.00;;;;;;;;;;6223504;22;20008;-82
2022/06/05 01:43:18;;;;;;;21.60;14.43;;;;;;;;;;6273621;22;20496;-83
2022/06/05 01:45:54;;;;;;;20.10;14.82;;;;;;;;;;6249433;22;20000;-83
2022/06/05 01:48:56;;;;;;;24.33;15.38;;;;;;;;;;6279314;22;20054;-83
2022/06/05 01:51:28;;;;;;;25.08;15.48;;;;;;;;;;6201496;22;20492;-83
2022/06/05 01:53:53;;;;;;;21.92;14.88;;;;;;;;;;6273319;22;20008;-82
2022/06/05 01:56:37;;;;;;;19.98;14.75;;;;;;;;;;6222806;22;20010;-82
2022/06/05 01:59:17;;;;;;;23.25;15.88;;;;;;;;;;6273721;22;20011;-82
2022/06/05 02:01:47;;;;;;;21.00;14.52;;;;;;;;;;6248255;22;20011;-81
2022/06/05 02:04:14;;;;;;;;;;;;;;;;;;6273850;22;20043;-82
2022/06/05 02:06:45;;;;;;;21.05;14.77;;;;;;;;;;6248520;22;19930;-82
2022/06/05 02:09:35;;;;;;;20.48;15.02;;;;;;;;;;6248402;22;20004;-81
2022/06/05 02:12:02;;;;;;;22.45;15.60;;;;;;;;;;6263746;22;20003;-82
2022/06/05 02:14:27;;;;;;;23.17;15.20;;;;;;;;;;6273243;22;20077;-81
2022/06/05 02:16:53;;;;;;;22.73;15.93;;;;;;;;;;6250183;22;20012;-81
2022/06/05 02:19:19;;;;;;;20.27;15.02;;;;;;;;;;6290305;22;20430;-81
2022/06/05 02:21:44;;;;;;;21.48;14.98;;;;;;;;;;6282180;22;20407;-82
2022/06/05 02:24:11;;;;;;;26.98;15.23;;;;;;;;;;6287189;22;20035;-81
2022/06/05 02:26:36;;;;;;;22.75;15.77;;;;;;;;;;6289055;22;20000;-82
2022/06/05 02:29:12;;;;;;;22.55;14.45;;;;;;;;;;6274945;22;20011;-82
2022/06/05 02:31:50;;;;;;;27.88;16.50;;;;;;;;;;6225268;22;20362;-82
2022/06/05 02:34:30;;;;;;;26.50;15.00;;;;;;;;;;6276342;22;20008;-82
2022/06/05 02:36:58;;;;;;;;;;;;;;;;;;6273576;22;20004;-82
2022/06/05 02:39:51;;;;;;;23.85;14.70;;;;;;;;;;6274790;22;19908;-82
2022/06/05 02:42:55;;;;;;;27.05;14.98;;;;;;;;;;6274685;22;20070;-81
2022/06/05 02:45:28;;;;;;;21.20;16.15;;;;;;;;;;6275517;22;20149;-81
2022/06/05 02:48:03;;;;;;;23.98;15.52;;;;;;;;;;6275308;22;20003;-82
2022/06/05 02:50:40;;;;;;;27.00;16.27;;;;;;;;;;6276724;22;20061;-83
2022/06/05 02:53:07;;;;;;;21.65;15.45;;;;;;;;;;6249704;22;20022;-81
2022/06/05 02:55:33;;;;;;;22.35;14.88;;;;;;;;;;6279231;22;20008;-81
2022/06/05 02:57:58;;;;;;;23.40;14.88;;;;;;;;;;6276725;22;20000;-82
2022/06/05 03:00:25;;;;;;;24.60;15.30;;;;;;;;;;6276054;22;20007;-82
2022/06/05 03:05:36;;;;;;;28.88;14.45;;;;;;;;;;6276952;22;20018;-82
2022/06/05 03:08:01;;;;;;;28.23;15.07;;;;;;;;;;6277100;22;20003;-82
2022/06/05 03:10:26;;;;;;;23.65;14.82;;;;;;;;;;6276813;22;20056;-82
2022/06/05 03:12:52;;;;;;;30.13;14.77;;;;;;;;;;6275100;22;20031;-82
2022/06/05 03:15:17;;;;;;;26.52;15.70;;;;;;;;;;6276695;22;20000;-81
2022/06/05 03:17:43;;;;;;;23.20;14.40;;;;;;;;;;6276836;22;20007;-82
2022/06/05 03:20:10;;;;;;;25.60;15.40;;;;;;;;;;6277072;22;20000;-82
2022/06/05 03:22:35;;;;;;;23.48;14.70;;;;;;;;;;6249337;22;20004;-81
2022/06/05 03:25:01;;;;;;;28.50;14.82;;;;;;;;;;6276329;22;20438;-81
2022/06/05 03:27:27;;;;;;;18.10;14.18;;;;;;;;;;6249643;22;19999;-82
2022/06/05 03:29:53;;;;;;;21.98;14.50;;;;;;;;;;6249817;22;20086;-81
2022/06/05 03:32:18;;;;;;;21.63;14.23;;;;;;;;;;6249616;22;20011;-83
2022/06/05 03:34:44;;;;;;;29.98;14.30;;;;;;;;;;6224366;22;20423;-82
2022/06/05 03:37:09;;;;;;;20.85;14.98;;;;;;;;;;6276291;22;20066;-82
2022/06/05 03:39:35;;;;;;;25.58;13.98;;;;;;;;;;6276635;22;20343;-82
2022/06/05 03:42:00;;;;;;;24.77;14.27;;;;;;;;;;6279563;22;19995;-83
2022/06/05 03:44:26;;;;;;;22.60;14.43;;;;;;;;;;6276247;22;20014;-82
2022/06/05 03:46:52;;;;;;;21.88;14.15;;;;;;;;;;6249213;22;20423;-81
2022/06/05 03:49:18;;;;;;;21.25;13.90;;;;;;;;;;6276218;22;20033;-82
2022/06/05 03:51:44;;;;;;;23.30;14.00;;;;;;;;;;6198900;22;20004;-82
2022/06/05 03:54:10;;;;;;;18.15;13.68;;;;;;;;;;6276161;22;20422;-82
2022/06/05 03:56:35;;;;;;;17.90;12.85;;;;;;;;;;6248627;22;20000;-82
2022/06/05 03:59:01;;;;;;;21.25;13.45;;;;;;;;;;6276401;22;20346;-81
2022/06/05 04:01:27;;;;;;;19.23;13.52;;;;;;;;;;6275953;22;19995;-81
2022/06/05 04:03:52;;;;;;;25.65;14.32;;;;;;;;;;6277213;22;20014;-82
2022/06/05 04:06:20;;;;;;;20.23;14.65;;;;;;;;;;6200853;22;20027;-82
2022/06/05 04:08:45;;;;;;;23.48;14.32;;;;;;;;;;6248884;22;20082;-82
2022/06/05 04:11:13;;;;;;;24.10;14.00;;;;;;;;;;6276031;22;20004;-82
2022/06/05 04:13:39;;;;;;;24.15;14.48;;;;;;;;;;6248830;22;20035;-81
2022/06/05 04:16:11;;;;;;;21.48;13.68;;;;;;;;;;6249479;22;20470;-82
2022/06/05 04:18:37;;;;;;;25.60;13.77;;;;;;;;;;6274207;22;20393;-81
2022/06/05 04:21:11;;;;;;;24.20;13.25;;;;;;;;;;6223705;22;20007;-81
2022/06/05 04:23:37;;;;;;;21.83;14.50;;;;;;;;;;6274453;22;20488;-82
2022/06/05 04:26:05;;;;;;;19.75;12.63;;;;;;;;;;6275920;22;20007;-82
2022/06/05 04:28:31;;;;;;;20.77;13.25;;;;;;;;;;6279668;22;20379;-82
2022/06/05 04:30:56;;;;;;;21.17;13.02;;;;;;;;;;6275870;22;20029;-82
2022/06/05 04:33:21;;;;;;;20.65;12.82;;;;;;;;;;6275498;22;20057;-82
2022/06/05 04:35:47;;;;;;;16.60;12.18;;;;;;;;;;6248758;22;20061;-82
2022/06/05 04:38:12;;;;;;;20.55;12.07;;;;;;;;;;6275719;22;19999;-81
2022/06/05 04:40:38;;;;;;;23.83;13.38;;;;;;;;;;6275838;22;20084;-82
2022/06/05 04:43:03;;;;;;;19.65;11.77;;;;;;;;;;6275577;22;20062;-82
2022/06/05 04:45:29;;;;;;;14.85;11.55;;;;;;;;;;6275388;22;20003;-82
2022/06/05 04:47:54;;;;;;;15.57;11.70;;;;;;;;;;6279238;22;20358;-83
2022/06/05 04:50:19;;;;;;;19.27;11.05;;;;;;;;;;6274128;22;20008;-82
2022/06/05 04:52:45;;;;;;;21.58;11.60;;;;;;;;;;6275937;22;20007;-82
2022/06/05 04:55:11;;;;;;;16.27;10.95;;;;;;;;;;6275542;22;20007;-82
2022/06/05 04:57:36;;;;;;;17.08;10.52;;;;;;;;;;6275614;22;20504;-83
2022/06/05 05:00:04;;;;;;;16.45;10.63;;;;;;;;;;6275524;22;20003;-82
2022/06/05 05:02:29;;;;;;;16.92;11.48;;;;;;;;;;6275262;22;19995;-82
2022/06/05 05:04:56;;;;;;;21.67;10.80;;;;;;;;;;6275265;22;20008;-82
2022/06/05 05:07:22;;;;;;;18.60;10.88;;;;;;;;;;6275410;22;20004;-82
2022/06/05 05:09:47;;;;;;;17.20;10.38;;;;;;;;;;6277215;22;20061;-81
2022/06/05 05:12:13;;;;;;;18.63;10.52;;;;;;;;;;6275971;22;20007;-82
2022/06/05 05:14:39;;;;;;;14.88;10.00;;;;;;;;;;6275259;22;19996;-82
2022/06/05 05:17:05;;;;;;;19.30;10.07;;;;;;;;;;6274803;22;20022;-82
2022/06/05 05:19:30;;;;;;;15.55;9.88;;;;;;;;;;6275426;22;20019;-82
2022/06/05 05:21:55;;;;;;;16.55;9.45;;;;;;;;;;6275277;22;20003;-82
2022/06/05 05:24:21;;;;;;;14.25;9.07;;;;;;;;;;6275015;22;20007;-80
2022/06/05 05:26:46;;;;;;;15.82;8.80;;;;;;;;;;6275224;22;20003;-83
2022/06/05 05:29:12;;;;;;;15.60;9.13;;;;;;;;;;6275262;22;20004;-81
2022/06/05 05:31:39;;;;;;;18.42;8.48;;;;;;;;;;6248788;22;20094;-82
2022/06/05 05:34:05;;;;;;;15.30;8.25;;;;;;;;;;6249566;22;20007;-82
2022/06/05 05:36:31;;;;;;;12.55;7.75;;;;;;;;;;6274981;22;20012;-82
2022/06/05 05:44:25;;;;;;;10.02;7.35;;;;;;;;;;6252039;22;20071;-82
2022/06/05 05:46:50;;;;;;;13.50;7.20;;;;;;;;;;6274738;22;19996;-82
2022/06/05 05:49:16;;;;;;;10.68;7.10;;;;;;;;;;6275539;22;20038;-83
2022/06/05 05:51:41;;;;;;;12.93;7.28;;;;;;;;;;6289753;22;20004;-83
2022/06/05 05:54:07;;;;;;;13.73;6.68;;;;;;;;;;6248443;22;20338;-81
2022/06/05 05:56:32;;;;;;;12.00;6.38;;;;;;;;;;6251953;22;20347;-82
2022/06/05 05:58:58;;;;;;;9.73;6.68;;;;;;;;;;6274812;22;20036;-82
2022/06/05 06:01:23;;;;;;;10.82;6.97;;;;;;;;;;6248300;22;19996;-82
2022/06/05 06:03:49;;;;;;;10.25;6.55;;;;;;;;;;6274744;22;20083;-82
2022/06/05 06:06:14;;;;;;;9.73;6.05;;;;;;;;;;6274801;22;20004;-82
2022/06/05 06:08:40;;;;;;;10.93;6.07;;;;;;;;;;6274822;22;20010;-83
2022/06/05 06:11:06;;;;;;;11.48;6.18;;;;;;;;;;6277007;22;20010;-81
2022/06/05 06:13:31;;;;;;;10.55;6.40;;;;;;;;;;6277291;22;20075;-83
2022/06/05 06:15:57;;;;;;;6.38;5.35;;;;;;;;;;6276597;22;19999;-81
2022/06/05 06:18:22;;;;;;;20.15;5.75;;;;;;;;;;6276646;22;20010;-83
2022/06/05 06:20:48;;;;;;;10.57;5.68;;;;;;;;;;6274887;22;20345;-83
2022/06/05 06:23:14;;;;;;;11.35;5.65;;;;;;;;;;6247691;22;20031;-82
2022/06/05 06:25:39;;;;;;;13.18;5.47;;;;;;;;;;6222773;22;20007;-83
2022/06/05 06:28:05;;;;;;;10.68;5.28;;;;;;;;;;6248050;22;20000;-81
2022/06/05 06:30:32;;;;;;;11.10;5.20;;;;;;;;;;6275336;22;20082;-81
2022/06/05 06:32:58;;;;;;;7.90;5.05;;;;;;;;;;6247859;22;19999;-81
2022/06/05 06:35:23;;;;;;;6.80;5.00;;;;;;;;;;6248534;22;20106;-81
2022/06/05 06:37:49;;;;;;;9.00;5.07;;;;;;;;;;6274683;22;20000;-81
2022/06/05 06:40:14;;;;;;;8.30;5.07;;;;;;;;;;6248056;22;20019;-80
2022/06/05 06:42:39;;;;;;;9.75;5.22;;;;;;;;;;6275590;22;20061;-81
2022/06/05 06:45:06;;;;;;;10.05;5.18;;;;;;;;;;6247242;22;20004;-83
2022/06/05 06:47:31;;;;;;;8.27;4.70;;;;;;;;;;6274918;22;20007;-81
2022/06/05 06:49:56;;;;;;;9.77;4.30;;;;;;;;;;6274738;22;20347;-81
2022/06/05 06:52:22;;;;;;;9.23;4.70;;;;;;;;;;6222257;22;20338;-82
2022/06/05 06:54:50;;;;;;;11.68;5.10;;;;;;;;;;6274827;22;20004;-82
2022/06/05 06:57:16;;;;;;;9.57;4.47;;;;;;;;;;6223217;22;20008;-81
2022/06/05 06:59:41;;;;;;;9.10;4.47;;;;;;;;;;6274792;22;20007;-81
2022/06/05 07:02:06;;;;;;;5.13;3.92;;;;;;;;;;6274684;22;20407;-82
2022/06/05 07:04:32;;;;;;;6.97;4.43;;;;;;;;;;6250234;22;20008;-82
2022/06/05 07:06:58;;;;;;;7.70;4.28;;;;;;;;;;6274692;22;20006;-81
2022/06/05 07:09:23;;;;;;;13.77;4.63;;;;;;;;;;6222676;22;20087;-82
2022/06/05 07:11:49;;;;;;;8.35;4.35;;;;;;;;;;6274468;22;20062;-82
2022/06/05 07:14:16;;;;;;;11.43;4.20;;;;;;;;;;6197623;22;20083;-82
2022/06/05 07:16:41;;;;;;;7.78;4.40;;;;;;;;;;6274943;22;20019;-82
2022/06/05 07:19:07;;;;;;;8.13;4.15;;;;;;;;;;6247562;22;20003;-81
2022/06/05 07:21:32;;;;;;;19.65;4.35;;;;;;;;;;6274467;22;20000;-82
2022/06/05 07:23:58;;;;;;;7.18;4.10;;;;;;;;;;6274446;22;20396;-82
2022/06/05 07:26:24;;;;;;;7.68;4.25;;;;;;;;;;6253154;22;20003;-82
2022/06/05 07:28:50;;;;;;;5.82;3.65;;;;;;;;;;6274622;22;20073;-82
2022/06/05 07:31:16;;;;;;;11.38;4.10;;;;;;;;;;6222801;22;20000;-82
2022/06/05 07:33:41;;;;;;;8.10;3.75;;;;;;;;;;6276540;22;20004;-82
2022/06/05 07:36:09;;;;;;;6.15;3.40;;;;;;;;;;6276346;22;20064;-83
2022/06/05 07:38:34;;;;;;;5.63;4.03;;;;;;;;;;6249238;22;20000;-82
2022/06/05 07:41:00;;;;;;;13.63;3.45;;;;;;;;;;6249143;22;20438;-81
2022/06/05 07:43:25;;;;;;;6.75;3.42;;;;;;;;;;6198890;22;20484;-82
2022/06/05 07:45:51;;;;;;;5.43;3.38;;;;;;;;;;6276196;22;20000;-82
2022/06/05 07:48:20;;;;;;;8.10;3.78;;;;;;;;;;6251905;22;20010;-81
2022/06/05 07:56:22;;;;;;;5.45;3.20;;;;;;;;;;6275898;22;20010;-83
2022/06/05 07:58:48;;;;;;;5.32;3.17;;;;;;;;;;6249830;22;20115;-83
2022/06/05 08:01:13;;;;;;;6.90;3.10;;;;;;;;;;6223972;22;20068;-82
2022/06/05 08:03:39;;;;;;;8.77;3.03;;;;;;;;;;6276049;22;20000;-82
2022/06/05 08:06:04;;;;;;;5.95;3.10;;;;;;;;;;6275897;22;20000;-83
2022/06/05 08:08:30;;;;;;;4.80;3.30;;;;;;;;;;6248888;22;20461;-81
2022/06/05 08:11:02;;;;;;;5.15;2.95;;;;;;;;;;6226066;22;20389;-82
2022/06/05 08:13:27;;;;;;;10.20;3.13;;;;;;;;;;6252564;22;19999;-83
2022/06/05 08:15:53;;;;;;;3.95;2.88;;;;;;;;;;6223322;22;20438;-82
2022/06/05 08:18:18;;;;;;;4.75;2.85;;;;;;;;;;6223628;22;19996;-83
2022/06/05 08:20:43;;;;;;;8.07;2.95;;;;;;;;;;6275947;22;20004;-82
2022/06/05 08:23:09;;;;;;;9.05;3.20;;;;;;;;;;6248935;22;20000;-82
2022/06/05 08:25:34;;;;;;;7.40;3.00;;;;;;;;;;6248296;22;20090;-83
2022/06/05 08:28:00;;;;;;;6.78;3.53;;;;;;;;;;6276043;22;20441;-84
2022/06/05 08:30:25;;;;;;;6.53;3.40;;;;;;;;;;6275695;22;20466;-83
2022/06/05 08:32:50;;;;;;;6.20;2.88;;;;;;;;;;6275637;22;20022;-83
2022/06/05 08:35:16;;;;;;;3.63;3.00;;;;;;;;;;6206119;22;20440;-82
2022/06/05 08:43:12;;;;;;;7.45;3.20;;;;;;;;;;6252431;22;20394;-83
2022/06/05 08:45:46;;;;;;;8.13;2.92;;;;;;;;;;6248989;22;20015;-83
2022/06/05 08:48:24;;;;;;;5.88;2.97;;;;;;;;;;6199282;22;20008;-82
2022/06/05 08:50:50;;;;;;;;;;;;;;;;;;6200120;22;20008;-83
2022/06/05 08:53:40;;;;;;;4.38;2.75;;;;;;;;;;6276316;22;20328;-82
2022/06/05 08:56:06;;;;;;;5.60;2.95;;;;;;;;;;6276849;22;20074;-83
2022/06/05 08:58:41;;;;;;;3.83;2.60;;;;;;;;;;6226245;22;20378;-83
2022/06/05 09:01:16;;;;;;;8.35;2.70;;;;;;;;;;6248900;22;20004;-83
2022/06/05 09:04:15;;;;;;;4.95;2.80;;;;;;;;;;6223644;22;20008;-82
2022/06/05 09:06:44;;;;;;;5.85;2.60;;;;;;;;;;6275346;22;20556;-83
2022/06/05 09:09:17;;;;;;;4.13;2.38;;;;;;;;;;6223863;22;20015;-83
2022/06/05 09:11:57;;;;;;;4.70;2.90;;;;;;;;;;6248970;22;19991;-83
2022/06/05 09:14:31;;;;;;;4.43;2.90;;;;;;;;;;6250615;22;20340;-83
2022/06/05 09:17:00;;;;;;;5.70;2.95;;;;;;;;;;6276014;22;20003;-83
2022/06/05 09:19:26;;;;;;;7.50;2.78;;;;;;;;;;6281323;22;20053;-83
2022/06/05 09:21:54;;;;;;;8.25;3.10;;;;;;;;;;6250934;22;20010;-83
2022/06/05 09:24:26;;;;;;;;;;;;;;;;;;6275473;22;19999;-82
2022/06/05 09:26:57;;;;;;;3.33;2.67;;;;;;;;;;6275324;22;19907;-82
2022/06/05 09:29:44;;;;;;;6.80;2.67;;;;;;;;;;6273611;22;20015;-82
2022/06/05 09:32:57;;;;;;;6.00;2.80;;;;;;;;;;6250482;22;20000;-83
2022/06/05 09:35:53;;;;;;;4.25;2.97;;;;;;;;;;6264497;22;20397;-84
2022/06/05 09:38:24;;;;;;;9.32;3.20;;;;;;;;;;6195944;22;20000;-83
2022/06/05 09:41:16;;;;;;;7.57;2.88;;;;;;;;;;6249128;22;20018;-83
2022/06/05 09:44:09;;;;;;;4.20;2.95;;;;;;;;;;6224514;22;20011;-83
2022/06/05 09:47:03;;;;;;;5.28;3.10;;;;;;;;;;6275006;22;20011;-82
2022/06/05 09:49:37;;;;;;;6.75;2.90;;;;;;;;;;6248647;22;19999;-83
2022/06/05 09:52:20;;;;;;;7.35;3.17;;;;;;;;;;6247754;22;20008;-83
2022/06/05 09:54:52;;;;;;;10.65;3.40;;;;;;;;;;6274570;22;20000;-82
2022/06/05 10:00:30;;;;;;;7.30;3.00;;;;;;;;;;6273604;22;20458;-83
2022/06/05 10:03:02;;;;;;;3.25;2.83;;;;;;;;;;6274882;22;20011;-82
2022/06/05 10:05:30;;;;;;;5.55;2.90;;;;;;;;;;6277941;22;20011;-82
2022/06/05 10:08:24;;;;;;;5.18;2.90;;;;;;;;;;6273793;22;20003;-81
2022/06/05 10:10:53;;;;;;;4.85;2.70;;;;;;;;;;6274852;22;20085;-83
2022/06/05 10:13:44;;;;;;;3.72;2.75;;;;;;;;;;6248421;22;20008;-83
2022/06/05 10:16:19;;;;;;;9.27;2.90;;;;;;;;;;6252208;22;20106;-83
2022/06/05 10:18:51;;;;;;;3.83;2.20;;;;;;;;;;6274830;22;20078;-83
2022/06/05 10:21:20;;;;;;;5.13;3.00;;;;;;;;;;6248065;22;20019;-83
2022/06/05 10:23:57;;;;;;;7.50;2.67;;;;;;;;;;6248463;22;20026;-82
2022/06/05 10:26:29;;;;;;;5.70;2.40;;;;;;;;;;6274776;22;20057;-82
2022/06/05 10:29:28;;;;;;;3.33;2.20;;;;;;;;;;6277641;22;20003;-83
2022/06/05 10:31:54;;;;;;;5.40;3.10;;;;;;;;;;6250735;22;19999;-82
2022/06/05 10:34:31;;;;;;;7.97;2.58;;;;;;;;;;6273700;22;20098;-83
2022/06/05 10:37:12;;;;;;;9.65;2.90;;;;;;;;;;6247633;22;20032;-84
2022/06/05 10:39:56;;;;;;;2.50;2.28;;;;;;;;;;6224072;22;20091;-83
2022/06/05 10:42:23;;;;;;;3.28;2.72;;;;;;;;;;6273941;22;20030;-82
2022/06/05 10:44:59;;;;;;;2.97;2.50;;;;;;;;;;6248870;22;20434;-83
2022/06/05 10:47:44;;;;;;;8.40;2.55;;;;;;;;;;6273543;22;20442;-83
2022/06/05 10:50:12;;;;;;;7.57;3.10;;;;;;;;;;6277271;22;19999;-83
2022/06/05 10:52:50;;;;;;;3.28;2.50;;;;;;;;;;6276126;22;20061;-83
2022/06/05 10:55:30;;;;;;;8.27;2.17;;;;;;;;;;6273184;22;19996;-83
2022/06/05 10:58:08;;;;;;;6.68;2.97;;;;;;;;;;6273300;22;20411;-82
2022/06/05 11:00:56;;;;;;;3.67;2.80;;;;;;;;;;6274606;22;20008;-82
2022/06/05 11:03:50;;;;;;;7.70;3.03;;;;;;;;;;6273395;22;20071;-82
2022/06/05 11:06:30;;;;;;;5.75;2.58;;;;;;;;;;6248969;22;20000;-83
2022/06/05 11:09:11;;;;;;;4.05;2.90;;;;;;;;;;6276455;22;20426;-83
2022/06/05 11:14:58;;;;;;;5.03;2.78;;;;;;;;;;6259203;22;20121;-83
2022/06/05 11:17:34;;;;;;;6.20;3.22;;;;;;;;;;6250687;22;20458;-83
2022/06/05 11:20:23;;;;;;;4.10;2.63;;;;;;;;;;6249072;22;20008;-82
2022/06/05 11:23:06;;;;;;;;;;;;;;;;;;6250675;22;20000;-81
2022/06/05 11:25:33;;;;;;;4.30;3.03;;;;;;;;;;6275508;22;20302;-83
2022/06/05 11:28:20;;;;;;;5.35;2.97;;;;;;;;;;6249498;22;20010;-81
2022/06/05 11:31:08;;;;;;;5.38;3.13;;;;;;;;;;6276374;22;20000;-83
2022/06/05 11:33:38;;;;;;;5.47;3.13;;;;;;;;;;6276022;22;20418;-84
2022/06/05 11:36:18;;;;;;;4.10;3.13;;;;;;;;;;6232371;22;20019;-82
2022/06/05 11:39:21;;;;;;;7.50;3.00;;;;;;;;;;6274618;22;20000;-82
2022/06/05 11:41:55;;;;;;;11.02;3.63;;;;;;;;;;6276327;22;20042;-83
2022/06/05 11:44:31;;;;;;;9.18;3.38;;;;;;;;;;6277077;22;20003;-83
2022/06/05 11:47:04;;;;;;;4.72;3.42;;;;;;;;;;6274636;22;20003;-82
2022/06/05 11:49:55;;;;;;;6.57;3.13;;;;;;;;;;6275923;22;20000;-83
2022/06/05 11:52:56;;;;;;;6.78;3.60;;;;;;;;;;6227849;22;20015;-82
2022/06/05 11:55:41;;;;;;;6.65;3.45;;;;;;;;;;6209070;22;20015;-83
2022/06/05 11:58:11;;;;;;;3.50;3.20;;;;;;;;;;6276623;22;20422;-83
2022/06/05 12:01:01;;;;;;;7.43;3.38;;;;;;;;;;6254477;22;20430;-84
2022/06/05 12:03:37;;;;;;;8.63;3.67;;;;;;;;;;6249849;22;20008;-84
2022/06/05 12:06:15;;;;;;;10.75;3.50;;;;;;;;;;6277697;22;20845;-84
2022/06/05 12:08:51;;;;;;;8.90;3.47;;;;;;;;;;6259742;22;20018;-83
2022/06/05 12:11:26;;;;;;;6.25;3.20;;;;;;;;;;6267269;22;20008;-82
2022/06/05 12:13:54;;;;;;;8.55;3.15;;;;;;;;;;6265807;22;20072;-83
2022/06/05 12:16:27;;;;;;;9.57;3.63;;;;;;;;;;6289125;22;20018;-82
2022/06/05 12:19:05;;;;;;;7.00;3.25;;;;;;;;;;6281894;22;20008;-83
2022/06/05 12:21:46;;;;;;;4.65;3.00;;;;;;;;;;6281895;22;20000;-83
2022/06/05 12:24:20;;;;;;;7.63;3.38;;;;;;;;;;6250172;22;20000;-83
2022/06/05 12:26:51;;;;;;;4.85;3.17;;;;;;;;;;6249464;22;20051;-85
2022/06/05 12:29:36;;;;;;;5.50;3.33;;;;;;;;;;6249745;22;20000;-81
2022/06/05 12:32:08;;;;;;;5.80;2.67;;;;;;;;;;6252824;22;20011;-81
2022/06/05 12:34:44;;;;;;;4.78;3.30;;;;;;;;;;6249739;22;20085;-82
2022/06/05 12:37:22;;;;;;;6.05;3.22;;;;;;;;;;6249376;22;20062;-82
2022/06/05 12:39:49;;;;;;;6.70;3.50;;;;;;;;;;6274279;22;20023;-82
2022/06/05 12:42:23;;;;;;;4.43;3.22;;;;;;;;;;6296558;22;20003;-81
2022/06/05 12:45:04;;;;;;;8.43;3.45;;;;;;;;;;6282686;22;20008;-82
2022/06/05 12:48:07;;;;;;;3.33;3.03;;;;;;;;;;6274379;22;20004;-80
2022/06/05 12:50:32;;;;;;;6.60;3.97;;;;;;;;;;6275890;22;20703;-82
2022/06/05 12:53:22;;;;;;;8.15;3.17;;;;;;;;;;6275409;22;20061;-81
2022/06/05 12:55:54;;;;;;;7.00;3.38;;;;;;;;;;6274618;22;20011;-84
2022/06/05 12:58:33;;;;;;;7.10;3.50;;;;;;;;;;6250113;22;20323;-82
2022/06/05 13:01:11;;;;;;;6.90;3.40;;;;;;;;;;6274069;22;20003;-83
2022/06/05 13:03:57;;;;;;;5.55;3.50;;;;;;;;;;6249739;22;20322;-85
2022/06/05 13:06:39;;;;;;;4.70;3.58;;;;;;;;;;6281447;22;20007;-84
2022/06/05 13:09:34;;;;;;;5.28;3.40;;;;;;;;;;6250447;22;20004;-82
2022/06/05 13:12:01;;;;;;;7.97;3.97;;;;;;;;;;6252712;22;20007;-84
2022/06/05 13:15:12;;;;;;;4.07;3.05;;;;;;;;;;6273936;22;20003;-84
2022/06/05 13:17:42;;;;;;;8.75;2.80;;;;;;;;;;6127430;23;20356;-82
2022/06/05 13:20:45;;;;;;;7.22;3.40;;;;;;;;;;6257877;22;20011;-82
2022/06/05 13:23:30;;;;;;;4.03;2.90;;;;;;;;;;6275842;22;20004;-82
2022/06/05 13:26:06;;;;;;;5.38;3.00;;;;;;;;;;6274295;22;19999;-82
2022/06/05 13:29:07;;;;;;;4.20;3.15;;;;;;;;;;6276392;22;20011;-82
2022/06/05 13:31:43;;;;;;;5.03;3.08;;;;;;;;;;6274708;22;20393;-83
2022/06/05 13:34:52;;;;;;;8.80;3.42;;;;;;;;;;6273585;22;20004;-82
2022/06/05 13:37:45;;;;;;;5.45;3.55;;;;;;;;;;6259037;22;20437;-82
2022/06/05 13:40:22;;;;;;;4.30;2.60;;;;;;;;;;6252983;22;20494;-82
2022/06/05 13:42:49;;;;;;;4.07;3.25;;;;;;;;;;6249298;22;20011;-82
2022/06/05 13:45:30;;;;;;;5.15;3.35;;;;;;;;;;6273360;22;20042;-82
2022/06/05 13:48:04;;;;;;;7.32;3.50;;;;;;;;;;6249865;22;20007;-83
2022/06/05 13:50:29;;;;;;;9.05;3.85;;;;;;;;;;6273526;22;20000;-82
2022/06/05 13:53:09;;;;;;;6.10;3.00;;;;;;;;;;6278910;22;20007;-82
2022/06/05 13:55:43;;;;;;;7.03;3.00;;;;;;;;;;6274924;22;19999;-82
2022/06/05 13:58:31;;;;;;;6.20;3.00;;;;;;;;;;6223957;22;20065;-82
2022/06/05 14:01:33;;;;;;;7.35;3.28;;;;;;;;;;6275020;22;20004;-83
2022/06/05 14:04:17;;;;;;;4.63;2.92;;;;;;;;;;6248333;22;20007;-80
2022/06/05 14:07:12;;;;;;;8.18;3.28;;;;;;;;;;6274788;22;20442;-82
2022/06/05 14:09:45;;;;;;;5.78;2.58;;;;;;;;;;6262007;22;20322;-80
2022/06/05 14:12:22;;;;;;;7.32;3.05;;;;;;;;;;6274073;22;20010;-83
2022/06/05 14:14:48;;;;;;;7.75;2.88;;;;;;;;;;6227477;22;20004;-83
2022/06/05 14:17:32;;;;;;;5.28;2.72;;;;;;;;;;6275178;22;20350;-83
2022/06/05 14:20:05;;;;;;;4.30;2.40;;;;;;;;;;6224181;22;19995;-84
2022/06/05 14:22:53;;;;;;;4.38;2.58;;;;;;;;;;6247946;22;20006;-84
2022/06/05 14:25:29;;;;;;;4.30;2.85;;;;;;;;;;6227522;22;20162;-84
2022/06/05 14:28:00;;;;;;;4.93;2.50;;;;;;;;;;6247577;22;20091;-83
2022/06/05 14:30:28;;;;;;;5.47;2.75;;;;;;;;;;6248066;22;20066;-82
2022/06/05 14:32:55;;;;;;;5.90;2.80;;;;;;;;;;6248105;22;20010;-84
2022/06/05 14:35:32;;;;;;;3.53;2.50;;;;;;;;;;6222920;22;19996;-83
2022/06/05 14:38:17;;;;;;;4.82;2.70;;;;;;;;;;6280831;22;20430;-84
2022/06/05 14:41:08;;;;;;;5.65;3.03;;;;;;;;;;6248975;22;20000;-84
2022/06/05 14:44:10;;;;;;;6.68;2.78;;;;;;;;;;6276375;22;20082;-83
2022/06/05 14:46:47;;;;;;;3.83;2.80;;;;;;;;;;6276588;22;20038;-84
2022/06/05 14:49:32;;;;;;;4.30;2.90;;;;;;;;;;6224796;22;20000;-84
2022/06/05 14:52:31;;;;;;;7.00;3.00;;;;;;;;;;6276792;22;20031;-85
2022/06/05 14:58:26;;;;;;;7.22;3.40;;;;;;;;;;6236029;22;20015;-83
2022/06/05 15:01:19;;;;;;;6.18;3.35;;;;;;;;;;6249920;22;20069;-82
2022/06/05 15:04:09;;;;;;;6.43;3.63;;;;;;;;;;6249675;22;20419;-84
2022/06/05 15:06:41;;;;;;;7.13;3.17;;;;;;;;;;6253964;22;20074;-83
2022/06/05 15:09:37;;;;;;;5.15;2.97;;;;;;;;;;6225817;22;20000;-84
2022/06/05 15:12:11;;;;;;;5.05;2.80;;;;;;;;;;6250084;22;20039;-84
2022/06/05 15:14:57;;;;;;;4.97;2.83;;;;;;;;;;6224645;22;20468;-83
2022/06/05 15:17:37;;;;;;;4.55;3.45;;;;;;;;;;6242108;22;20004;-84
2022/06/05 15:20:04;;;;;;;6.75;3.85;;;;;;;;;;6232356;22;20007;-84
2022/06/05 15:23:02;;;;;;;6.03;3.55;;;;;;;;;;6252978;22;19995;-84
2022/06/05 15:25:43;;;;;;;11.00;3.78;;;;;;;;;;6274813;22;20097;-84
2022/06/05 15:28:30;;;;;;;5.65;3.88;;;;;;;;;;6224695;22;20325;-83
2022/06/05 15:31:24;;;;;;;6.15;3.45;;;;;;;;;;6275299;22;20320;-83
2022/06/05 15:33:59;;;;;;;8.77;3.70;;;;;;;;;;6226380;22;20004;-84
2022/06/05 15:37:15;;;;;;;8.90;4.05;;;;;;;;;;6275377;22;20008;-84
2022/06/05 15:40:01;;;;;;;9.70;4.03;;;;;;;;;;6224854;22;20073;-83
2022/06/05 15:42:34;;;;;;;4.70;3.55;;;;;;;;;;6229147;22;20007;-84